createdAt,value
2018-10-03T00:00:54.904Z,60.10
2018-10-03T00:03:26.026Z,62.29
2018-10-03T00:05:57.480Z,61.65
2018-10-03T00:08:28.601Z,60.73
2018-10-03T00:10:59.889Z,61.32
2018-10-03T00:13:30.572Z,61.49
2018-10-03T00:16:01.100Z,60.07
2018-10-03T00:18:32.126Z,60.89
2018-10-03T00:21:03.139Z,61.10
2018-10-03T00:23:33.755Z,61.70
2018-10-03T00:26:04.370Z,61.48
2018-10-03T00:28:35.147Z,61.11
2018-10-03T00:31:06.473Z,59.06
2018-10-03T00:33:36.949Z,58.83
2018-10-03T00:36:08.134Z,58.49
2018-10-03T00:38:39.974Z,59.62
2018-10-03T00:41:10.758Z,58.52
2018-10-03T00:43:41.418Z,58.37
2018-10-03T00:46:11.899Z,58.49
2018-10-03T00:48:43.632Z,58.37
2018-10-03T00:51:14.152Z,57.45
2018-10-03T00:53:44.692Z,57.75
2018-10-03T00:56:15.508Z,57.55
2018-10-03T00:58:46.657Z,57.79
2018-10-03T01:01:18.297Z,57.56
2018-10-03T01:03:49.088Z,57.81
2018-10-03T01:06:20.072Z,57.83
2018-10-03T01:08:52.049Z,57.09
2018-10-03T01:11:23.474Z,57.31
2018-10-03T01:13:54.560Z,57.46
2018-10-03T01:16:26.425Z,57.48
2018-10-03T01:18:57.811Z,57.35
2018-10-03T01:21:28.834Z,57.76
2018-10-03T01:23:59.565Z,57.63
2018-10-03T01:26:30.545Z,57.52
2018-10-03T01:29:02.399Z,57.63
2018-10-03T01:31:33.295Z,59.88
2018-10-03T01:34:04.546Z,59.13
2018-10-03T01:36:35.340Z,58.06
2018-10-03T01:39:08.850Z,58.41
2018-10-03T01:41:39.692Z,58.94
2018-10-03T01:44:10.661Z,59.16
2018-10-03T01:46:41.150Z,59.88
2018-10-03T01:49:13.278Z,58.96
2018-10-03T01:51:43.812Z,58.38
2018-10-03T01:54:14.382Z,58.82
2018-10-03T01:56:45.320Z,58.35
2018-10-03T01:59:17.491Z,60.56
2018-10-03T02:01:48.437Z,61.97
2018-10-03T02:04:20.032Z,60.58
2018-10-03T02:06:51.978Z,59.92
2018-10-03T02:09:23.416Z,59.79
2018-10-03T02:11:53.919Z,59.76
2018-10-03T02:14:24.445Z,59.29
2018-10-03T02:16:55.270Z,58.95
2018-10-03T02:19:26.582Z,58.87
2018-10-03T02:21:57.215Z,60.04
2018-10-03T02:24:28.135Z,58.98
2018-10-03T02:26:58.903Z,58.86
2018-10-03T02:29:29.897Z,59.10
2018-10-03T02:32:00.710Z,58.86
2018-10-03T02:34:31.563Z,58.74
2018-10-03T02:37:02.259Z,59.91
2018-10-03T02:39:33.643Z,59.69
2018-10-03T02:42:04.456Z,61.32
2018-10-03T02:44:35.909Z,61.86
2018-10-03T02:47:06.788Z,60.96
2018-10-03T02:49:37.927Z,60.35
2018-10-03T02:52:08.932Z,59.47
2018-10-03T02:54:39.690Z,58.86
2018-10-03T02:57:10.984Z,58.44
2018-10-03T02:59:42.307Z,59.19
2018-10-03T03:02:13.624Z,58.93
2018-10-03T03:04:44.502Z,59.65
2018-10-03T03:07:15.629Z,60.29
2018-10-03T03:09:47.223Z,60.41
2018-10-03T03:12:18.137Z,59.27
2018-10-03T03:14:48.956Z,59.05
2018-10-03T03:17:19.376Z,59.19
2018-10-03T03:19:50.345Z,59.05
2018-10-03T03:22:21.256Z,58.75
2018-10-03T03:24:51.706Z,58.26
2018-10-03T03:27:22.603Z,58.64
2018-10-03T03:29:54.044Z,58.49
2018-10-03T03:32:25.476Z,58.37
2018-10-03T03:34:56.190Z,58.09
2018-10-03T03:37:26.678Z,58.24
2018-10-03T03:39:58.795Z,58.77
2018-10-03T03:42:29.362Z,59.91
2018-10-03T03:45:00.615Z,59.84
2018-10-03T03:47:32.134Z,59.30
2018-10-03T03:50:03.541Z,59.14
2018-10-03T03:52:34.226Z,58.70
2018-10-03T03:55:05.421Z,58.37
2018-10-03T03:57:35.803Z,58.47
2018-10-03T04:00:07.787Z,59.54
2018-10-03T04:02:38.573Z,59.54
2018-10-03T04:05:10.432Z,59.13
2018-10-03T04:07:41.194Z,59.00
2018-10-03T04:10:12.859Z,58.93
2018-10-03T04:12:43.590Z,58.86
2018-10-03T04:15:14.154Z,58.86
2018-10-03T04:17:45.210Z,58.69
2018-10-03T04:20:16.470Z,58.99
2018-10-03T04:22:47.740Z,58.90
2018-10-03T04:25:19.059Z,58.74
2018-10-03T04:27:49.511Z,59.64
2018-10-03T04:30:21.669Z,60.99
2018-10-03T04:32:52.770Z,60.14
2018-10-03T04:35:23.872Z,59.77
2018-10-03T04:37:54.666Z,59.15
2018-10-03T04:40:26.153Z,59.70
2018-10-03T04:42:56.795Z,59.75
2018-10-03T04:45:27.276Z,59.02
2018-10-03T04:47:59.223Z,58.87
2018-10-03T04:50:30.614Z,59.33
2018-10-03T04:53:01.464Z,59.82
2018-10-03T04:55:31.931Z,59.82
2018-10-03T04:58:02.420Z,61.67
2018-10-03T05:00:34.210Z,61.53
2018-10-03T05:03:04.931Z,62.24
2018-10-03T05:05:35.681Z,62.78
2018-10-03T05:08:06.475Z,63.10
2018-10-03T05:10:39.364Z,62.03
2018-10-03T05:13:10.207Z,62.40
2018-10-03T05:15:41.119Z,61.49
2018-10-03T05:18:12.207Z,60.70
2018-10-03T05:20:43.176Z,60.32
2018-10-03T05:23:14.574Z,59.38
2018-10-03T05:25:45.535Z,60.36
2018-10-03T05:28:16.506Z,58.99
2018-10-03T05:30:47.948Z,64.10
2018-10-03T05:33:18.807Z,61.66
2018-10-03T05:35:50.242Z,60.22
2018-10-03T05:38:21.483Z,60.85
2018-10-03T05:40:53.248Z,59.67
2018-10-03T05:43:23.758Z,57.55
2018-10-03T05:45:54.233Z,57.07
2018-10-03T05:48:25.530Z,56.46
2018-10-03T05:50:56.730Z,55.73
2018-10-03T05:53:27.438Z,56.08
2018-10-03T05:55:59.122Z,57.09
2018-10-03T05:58:29.588Z,57.23
2018-10-03T06:01:00.654Z,55.38
2018-10-03T06:03:31.759Z,54.96
2018-10-03T06:06:03.058Z,54.24
2018-10-03T06:08:33.578Z,54.34
2018-10-03T06:11:04.778Z,56.55
2018-10-03T06:13:35.262Z,56.51
2018-10-03T06:16:07.298Z,54.18
2018-10-03T06:18:38.177Z,52.65
2018-10-03T06:21:10.672Z,51.01
2018-10-03T06:23:41.374Z,51.29
2018-10-03T06:26:11.953Z,52.36
2018-10-03T06:28:43.615Z,52.00
2018-10-03T06:31:15.847Z,53.16
2018-10-03T06:33:47.203Z,51.80
2018-10-03T06:36:18.182Z,51.14
2018-10-03T06:38:49.140Z,50.61
2018-10-03T06:41:20.674Z,49.22
2018-10-03T06:43:51.305Z,49.00
2018-10-03T06:46:22.137Z,48.33
2018-10-03T06:48:52.899Z,48.89
2018-10-03T06:51:24.227Z,48.02
2018-10-03T06:53:55.456Z,46.00
2018-10-03T06:56:25.862Z,45.52
2018-10-03T06:58:56.621Z,45.02
2018-10-03T07:01:28.069Z,43.61
2018-10-03T07:03:58.965Z,42.73
2018-10-03T07:06:30.456Z,39.57
2018-10-03T07:09:01.915Z,39.71
2018-10-03T07:11:33.603Z,39.78
2018-10-03T07:14:04.040Z,38.04
2018-10-03T07:16:35.335Z,38.63
2018-10-03T07:19:05.956Z,38.55
2018-10-03T07:21:37.198Z,37.84
2018-10-03T07:24:08.508Z,38.16
2018-10-03T07:26:39.614Z,37.72
2018-10-03T07:29:10.685Z,36.92
2018-10-03T07:31:41.596Z,35.84
2018-10-03T07:34:12.607Z,35.52
2018-10-03T07:36:43.371Z,35.95
2018-10-03T07:39:13.762Z,36.10
2018-10-03T07:41:44.803Z,35.26
2018-10-03T07:44:15.875Z,34.89
2018-10-03T07:46:46.707Z,33.00
2018-10-03T07:49:17.353Z,33.77
2018-10-03T07:51:49.384Z,33.70
2018-10-03T07:54:20.436Z,32.81
2018-10-03T07:56:51.467Z,33.77
2018-10-03T07:59:22.482Z,32.45
2018-10-03T08:01:53.406Z,32.72
2018-10-03T08:04:24.714Z,32.63
2018-10-03T08:06:56.015Z,32.36
2018-10-03T08:09:27.431Z,32.46
2018-10-03T08:11:58.338Z,31.12
2018-10-03T08:14:29.465Z,32.25
2018-10-03T08:17:00.893Z,32.01
2018-10-03T08:19:32.478Z,29.78
2018-10-03T08:22:03.720Z,28.97
2018-10-03T08:24:34.889Z,28.64
2018-10-03T08:27:06.026Z,28.21
2018-10-03T08:29:36.758Z,27.82
2018-10-03T08:32:08.681Z,28.38
2018-10-03T08:34:40.020Z,28.27
2018-10-03T08:37:11.038Z,27.04
2018-10-03T08:39:41.847Z,28.08
2018-10-03T08:42:13.480Z,27.81
2018-10-03T08:44:44.578Z,26.05
2018-10-03T08:47:15.006Z,26.46
2018-10-03T08:49:46.401Z,26.99
2018-10-03T08:52:18.265Z,26.52
2018-10-03T08:54:49.094Z,26.71
2018-10-03T08:57:20.357Z,25.97
2018-10-03T08:59:51.102Z,25.88
2018-10-03T09:02:23.298Z,25.46
2018-10-03T09:04:53.956Z,24.65
2018-10-03T09:07:25.171Z,25.89
2018-10-03T09:09:56.108Z,23.83
2018-10-03T09:12:27.630Z,24.22
2018-10-03T09:14:59.656Z,25.06
2018-10-03T09:17:30.534Z,24.26
2018-10-03T09:20:01.200Z,23.42
2018-10-03T09:22:32.745Z,25.54
2018-10-03T09:25:03.262Z,24.34
2018-10-03T09:27:34.619Z,25.82
2018-10-03T09:30:05.673Z,25.13
2018-10-03T09:32:37.450Z,23.55
2018-10-03T09:35:08.956Z,23.00
2018-10-03T09:37:39.100Z,23.80
2018-10-03T09:40:09.886Z,23.02
2018-10-03T09:42:41.522Z,24.54
2018-10-03T09:45:12.576Z,23.87
2018-10-03T09:47:43.201Z,24.04
2018-10-03T09:50:14.398Z,22.71
2018-10-03T09:52:45.951Z,21.91
2018-10-03T09:55:17.324Z,22.62
2018-10-03T09:57:48.830Z,21.72
2018-10-03T10:00:24.741Z,22.16
2018-10-03T10:02:56.959Z,21.31
2018-10-03T10:05:27.647Z,22.79
2018-10-03T10:07:58.529Z,23.57
2018-10-03T10:10:29.427Z,23.71
2018-10-03T10:13:01.471Z,24.66
2018-10-03T10:15:32.814Z,24.63
2018-10-03T10:18:03.374Z,25.90
2018-10-03T10:20:34.280Z,25.24
2018-10-03T10:23:06.075Z,24.20
2018-10-03T10:25:37.138Z,25.21
2018-10-03T10:28:08.945Z,25.36
2018-10-03T10:30:40.286Z,23.13
2018-10-03T10:33:11.483Z,23.00
2018-10-03T10:35:42.567Z,23.27
2018-10-03T10:38:13.436Z,24.93
2018-10-03T10:40:45.303Z,25.59
2018-10-03T10:43:16.782Z,24.44
2018-10-03T10:45:48.351Z,22.75
2018-10-03T10:48:19.350Z,22.32
2018-10-03T10:50:50.552Z,22.20
2018-10-03T10:53:22.165Z,22.37
2018-10-03T10:55:52.571Z,21.09
2018-10-03T10:58:23.435Z,21.69
2018-10-03T11:00:54.422Z,21.48
2018-10-03T11:03:25.574Z,21.00
2018-10-03T11:05:56.735Z,21.19
2018-10-03T11:08:27.506Z,22.61
2018-10-03T11:10:58.443Z,21.01
2018-10-03T11:13:29.770Z,19.21
2018-10-03T11:16:00.535Z,19.97
2018-10-03T11:18:31.171Z,21.92
2018-10-03T11:21:01.913Z,19.52
2018-10-03T11:23:33.939Z,19.83
2018-10-03T11:26:05.018Z,19.79
2018-10-03T11:28:35.515Z,19.00
2018-10-03T11:31:06.605Z,19.91
2018-10-03T11:33:38.686Z,19.40
2018-10-03T11:36:09.151Z,19.70
2018-10-03T11:38:39.687Z,18.98
2018-10-03T11:41:11.120Z,19.45
2018-10-03T11:43:43.109Z,19.87
2018-10-03T11:46:15.282Z,18.90
2018-10-03T11:48:46.263Z,19.28
2018-10-03T11:51:17.875Z,17.63
2018-10-03T11:53:49.293Z,16.79
2018-10-03T11:56:19.988Z,16.01
2018-10-03T11:58:51.177Z,16.29
2018-10-03T12:01:21.996Z,16.46
2018-10-03T12:03:54.373Z,16.06
2018-10-03T12:06:25.326Z,18.38
2018-10-03T12:08:56.246Z,19.22
2018-10-03T12:11:27.241Z,19.93
2018-10-03T12:13:58.946Z,19.48
2018-10-03T12:16:30.496Z,19.13
2018-10-03T12:19:01.980Z,19.00
2018-10-03T12:21:32.628Z,19.19
2018-10-03T12:24:05.960Z,19.57
2018-10-03T12:26:36.875Z,18.74
2018-10-03T12:29:08.297Z,18.92
2018-10-03T12:31:39.263Z,18.91
2018-10-03T12:34:10.678Z,17.29
2018-10-03T12:36:41.471Z,17.90
2018-10-03T12:39:12.371Z,19.75
2018-10-03T12:41:43.051Z,21.43
2018-10-03T12:44:16.116Z,21.20
2018-10-03T12:46:47.406Z,21.16
2018-10-03T12:49:18.099Z,21.83
2018-10-03T12:51:48.872Z,21.02
2018-10-03T12:54:20.742Z,21.83
2018-10-03T12:56:51.103Z,22.80
2018-10-03T12:59:21.991Z,23.01
2018-10-03T13:01:53.538Z,22.71
2018-10-03T13:04:25.557Z,23.50
2018-10-03T13:06:56.766Z,23.80
2018-10-03T13:09:27.920Z,24.81
2018-10-03T13:11:58.704Z,24.03
2018-10-03T13:14:29.893Z,23.79
2018-10-03T13:17:00.048Z,25.30
2018-10-03T13:19:31.136Z,25.38
2018-10-03T13:22:02.268Z,25.76
2018-10-03T13:24:32.993Z,26.18
2018-10-03T13:27:04.117Z,25.69
2018-10-03T13:29:35.007Z,26.03
2018-10-03T13:32:06.173Z,24.46
2018-10-03T13:34:37.422Z,26.06
2018-10-03T13:37:08.382Z,25.87
2018-10-03T13:39:39.207Z,25.31
2018-10-03T13:42:10.041Z,24.71
2018-10-03T13:44:40.669Z,24.12
2018-10-03T13:47:11.361Z,24.89
2018-10-03T13:49:42.180Z,24.05
2018-10-03T13:52:13.374Z,24.75
2018-10-03T13:54:44.847Z,23.48
2018-10-03T13:57:15.865Z,24.95
2018-10-03T13:59:47.400Z,25.35
2018-10-03T14:02:18.178Z,25.56
2018-10-03T14:04:49.164Z,25.97
2018-10-03T14:07:20.073Z,26.18
2018-10-03T14:09:51.281Z,27.89
2018-10-03T14:12:22.503Z,28.67
2018-10-03T14:14:53.784Z,29.48
2018-10-03T14:17:25.381Z,29.63
2018-10-03T14:19:56.363Z,29.32
2018-10-03T14:22:27.597Z,29.83
2018-10-03T14:24:59.377Z,29.66
2018-10-03T14:27:30.661Z,29.63
2018-10-03T14:30:01.540Z,30.66
2018-10-03T14:32:32.903Z,30.38
2018-10-03T14:35:04.000Z,29.99
2018-10-03T14:37:34.838Z,30.72
2018-10-03T14:40:05.447Z,30.87
2018-10-03T14:42:36.342Z,31.58
2018-10-03T14:45:08.664Z,31.92
2018-10-03T14:47:39.574Z,31.23
2018-10-03T14:50:10.796Z,31.56
2018-10-03T14:52:42.003Z,32.49
2018-10-03T14:55:14.265Z,32.69
2018-10-03T14:57:44.900Z,33.36
2018-10-03T15:00:15.290Z,33.14
2018-10-03T15:02:45.941Z,32.84
2018-10-03T15:05:17.656Z,34.02
2018-10-03T15:07:48.341Z,34.47
2018-10-03T15:10:19.661Z,33.94
2018-10-03T15:12:50.801Z,34.41
2018-10-03T15:15:23.027Z,34.63
2018-10-03T15:17:53.543Z,34.44
2018-10-03T15:20:24.906Z,36.10
2018-10-03T15:22:56.236Z,35.99
2018-10-03T15:25:27.185Z,36.08
2018-10-03T15:27:57.876Z,36.34
2018-10-03T15:30:28.893Z,36.29
2018-10-03T15:32:59.796Z,37.34
2018-10-03T15:35:32.138Z,37.66
2018-10-03T15:38:03.155Z,38.17
2018-10-03T15:40:34.188Z,38.44
2018-10-03T15:43:06.350Z,38.47
2018-10-03T15:45:37.586Z,38.39
2018-10-03T15:48:08.529Z,39.08
2018-10-03T15:50:39.414Z,40.57
2018-10-03T15:53:10.804Z,40.67
2018-10-03T15:55:42.591Z,41.13
2018-10-03T15:58:13.958Z,41.74
2018-10-03T16:00:44.830Z,41.84
2018-10-03T16:03:15.803Z,41.74
2018-10-03T16:05:47.130Z,41.54
2018-10-03T16:08:18.553Z,42.59
2018-10-03T16:10:49.995Z,42.08
2018-10-03T16:13:21.388Z,42.06
2018-10-03T16:15:52.819Z,42.62
2018-10-03T16:18:23.431Z,42.59
2018-10-03T16:20:54.695Z,42.51
2018-10-03T16:23:26.034Z,42.33
2018-10-03T16:25:57.414Z,42.64
2018-10-03T16:28:28.458Z,42.25
2018-10-03T16:30:59.091Z,42.51
2018-10-03T16:33:29.998Z,41.90
2018-10-03T16:36:01.754Z,41.62
2018-10-03T16:38:32.866Z,41.18
2018-10-03T16:41:03.829Z,41.44
2018-10-03T16:43:34.986Z,40.69
2018-10-03T16:46:06.557Z,40.93
2018-10-03T16:48:37.703Z,40.54
2018-10-03T16:51:08.493Z,40.75
2018-10-03T16:53:39.253Z,40.00
2018-10-03T16:56:11.373Z,39.96
2018-10-03T16:58:42.167Z,40.41
2018-10-03T17:01:12.919Z,40.46
2018-10-03T17:03:44.109Z,42.14
2018-10-03T17:06:16.102Z,41.88
2018-10-03T17:08:47.037Z,41.20
2018-10-03T17:11:17.921Z,40.90
2018-10-03T17:13:58.445Z,41.09
2018-10-03T17:16:29.984Z,40.96
2018-10-03T17:19:01.332Z,41.62
2018-10-03T17:21:31.719Z,43.03
2018-10-03T17:24:02.599Z,42.13
2018-10-03T17:26:34.314Z,41.47
2018-10-03T17:29:05.386Z,41.44
2018-10-03T17:31:36.172Z,42.14
2018-10-03T17:34:06.823Z,42.32
2018-10-03T17:36:38.095Z,41.51
2018-10-03T17:39:11.113Z,41.37
2018-10-03T17:41:42.771Z,41.92
2018-10-03T17:44:14.089Z,41.85
2018-10-03T17:46:46.423Z,41.95
2018-10-03T17:49:16.790Z,41.71
2018-10-03T17:51:47.642Z,43.22
2018-10-03T17:54:18.663Z,43.37
2018-10-03T17:56:50.438Z,43.38
2018-10-03T17:59:22.112Z,45.09
2018-10-03T18:01:56.670Z,43.49
2018-10-03T18:04:27.711Z,43.08
2018-10-03T18:06:59.573Z,42.41
2018-10-03T18:09:30.816Z,43.39
2018-10-03T18:12:01.689Z,43.31
2018-10-03T18:14:32.975Z,43.22
2018-10-03T18:17:04.518Z,42.44
2018-10-03T18:19:35.670Z,42.95
2018-10-03T18:22:06.613Z,43.04
2018-10-03T18:24:37.684Z,43.28
2018-10-03T18:27:09.746Z,43.40
2018-10-03T18:29:39.882Z,43.73
2018-10-03T18:32:10.236Z,43.50
2018-10-03T18:34:42.087Z,43.69
2018-10-03T18:37:12.408Z,43.85
2018-10-03T18:39:43.211Z,43.30
2018-10-03T18:42:13.665Z,43.66
2018-10-03T18:44:44.710Z,43.66
2018-10-03T18:47:15.121Z,43.77
2018-10-03T18:49:46.286Z,44.00
2018-10-03T18:52:17.413Z,43.80
2018-10-03T18:54:48.849Z,44.01
2018-10-03T18:57:20.393Z,44.19
2018-10-03T18:59:51.090Z,43.92
2018-10-03T19:02:21.878Z,44.08
2018-10-03T19:04:52.578Z,44.39
2018-10-03T19:07:23.273Z,44.51
2018-10-03T19:09:54.305Z,44.88
2018-10-03T19:12:25.726Z,46.30
2018-10-03T19:14:56.667Z,45.85
2018-10-03T19:17:28.646Z,46.07
2018-10-03T19:19:59.457Z,45.55
2018-10-03T19:22:30.104Z,45.74
2018-10-03T19:25:00.862Z,47.03
2018-10-03T19:29:00.757Z,47.31
2018-10-03T19:31:31.316Z,46.66
2018-10-03T19:34:02.102Z,46.31
2018-10-03T19:36:32.687Z,46.44
2018-10-03T19:39:04.001Z,46.80
2018-10-03T19:41:34.708Z,47.01
2018-10-03T19:44:06.221Z,46.68
2018-10-03T19:46:37.190Z,47.06
2018-10-03T19:49:08.544Z,47.17
2018-10-03T19:51:39.637Z,47.03
2018-10-03T19:54:10.671Z,47.86
2018-10-03T19:56:41.615Z,48.08
2018-10-03T19:59:13.161Z,48.37
2018-10-03T20:01:43.542Z,48.97
2018-10-03T20:04:14.617Z,48.60
2018-10-03T20:06:46.188Z,48.19
2018-10-03T20:09:17.747Z,48.43
2018-10-03T20:11:48.938Z,49.15
2018-10-03T20:14:20.351Z,48.93
2018-10-03T20:16:51.855Z,48.72
2018-10-03T20:19:22.833Z,49.47
2018-10-03T20:21:53.608Z,49.55
2018-10-03T20:24:24.686Z,49.06
2018-10-03T20:26:56.258Z,49.78
2018-10-03T20:29:26.780Z,49.72
2018-10-03T20:31:57.568Z,49.58
2018-10-03T20:34:28.451Z,49.18
2018-10-03T20:37:00.298Z,49.06
2018-10-03T20:39:31.451Z,50.10
2018-10-03T20:42:02.830Z,50.09
2018-10-03T20:44:33.977Z,49.66
2018-10-03T20:47:05.431Z,49.47
2018-10-03T20:49:35.855Z,50.06
2018-10-03T20:52:07.347Z,50.38
2018-10-03T20:54:38.411Z,51.97
2018-10-03T20:57:10.046Z,50.78
2018-10-03T20:59:41.260Z,51.80
2018-10-03T21:02:12.699Z,52.38
2018-10-03T21:04:43.226Z,50.93
2018-10-03T21:07:13.837Z,51.03
2018-10-03T21:09:45.367Z,50.71
2018-10-03T21:12:16.340Z,50.99
2018-10-03T21:14:47.070Z,50.73
2018-10-03T21:17:18.010Z,51.87
2018-10-03T21:19:49.229Z,53.67
2018-10-03T21:22:19.823Z,54.05
2018-10-03T21:24:50.754Z,54.74
2018-10-03T21:27:22.145Z,56.00
2018-10-03T21:29:52.893Z,55.50
2018-10-03T21:32:23.864Z,54.98
2018-10-03T21:34:54.941Z,53.07
2018-10-03T21:37:26.825Z,52.38
2018-10-03T21:39:57.481Z,51.85
2018-10-03T21:42:28.381Z,51.62
2018-10-03T21:44:58.763Z,52.10
2018-10-03T21:47:30.528Z,52.41
2018-10-03T21:50:01.530Z,54.65
2018-10-03T21:52:32.101Z,53.60
2018-10-03T21:55:02.616Z,52.94
2018-10-03T21:57:33.582Z,52.62
2018-10-03T22:00:05.027Z,52.36
2018-10-03T22:02:36.404Z,52.16
2018-10-03T22:05:09.573Z,52.05
2018-10-03T22:07:41.570Z,54.03
2018-10-03T22:10:12.922Z,54.60
2018-10-03T22:12:43.792Z,53.85
2018-10-03T22:15:14.653Z,54.57
2018-10-03T22:17:46.195Z,54.53
2018-10-03T22:20:16.413Z,53.71
2018-10-03T22:22:47.604Z,53.48
2018-10-03T22:25:18.368Z,54.19
2018-10-03T22:27:50.792Z,53.75
2018-10-03T22:30:21.641Z,53.20
2018-10-03T22:32:52.115Z,53.43
2018-10-03T22:35:22.976Z,53.36
2018-10-03T22:37:54.790Z,52.89
2018-10-03T22:40:25.419Z,54.01
2018-10-03T22:42:56.740Z,54.86
2018-10-03T22:45:27.535Z,55.69
2018-10-03T22:47:59.160Z,57.65
2018-10-03T22:50:30.466Z,56.38
2018-10-03T22:53:01.343Z,55.50
2018-10-03T22:55:32.511Z,54.28
2018-10-03T22:58:04.959Z,53.43
2018-10-03T23:00:35.633Z,53.26
2018-10-03T23:03:07.099Z,53.48
2018-10-03T23:05:38.021Z,53.02
2018-10-03T23:08:09.779Z,52.88
2018-10-03T23:10:40.736Z,53.07
2018-10-03T23:13:11.458Z,52.92
2018-10-03T23:15:42.387Z,53.62
2018-10-03T23:18:13.801Z,53.82
2018-10-03T23:20:44.446Z,54.06
2018-10-03T23:23:15.195Z,54.48
2018-10-03T23:25:46.372Z,52.98
2018-10-03T23:28:17.876Z,53.44
2018-10-03T23:30:48.473Z,56.42
2018-10-03T23:33:19.261Z,56.87
2018-10-03T23:35:49.807Z,55.86
2018-10-03T23:38:21.042Z,57.82
2018-10-03T23:40:52.073Z,55.27
2018-10-03T23:43:23.005Z,54.49
2018-10-03T23:45:53.910Z,56.15
2018-10-03T23:48:25.451Z,54.92
2018-10-03T23:50:56.612Z,54.68
2018-10-03T23:53:27.103Z,56.57
2018-10-03T23:55:58.109Z,56.49
2018-10-03T23:58:29.898Z,57.81
